• Join FlightAware (Why Join?)
  • Login
  • US Flag 
05:12AM EDT


 

Airport Tracker/Info


-or-


 

Live Flight TrackerFlight Track Log ✈ RPA3392 ✈ 17-May-2013 ✈ KDCA - KALB

Flight Track Log - Related Links

Times and Time Zones

All times are in EDT time to prevent confusion due to time zone crossing. See the RPA3392 flight status page for this flight to view local times or setup timezone preferences in your user account.

Time Position Orientation Groundspeed Altitude Reporting Facility
EDT Latitude Longitude Course Direction KTS MPH feet Rate Location/Type
10:39PM 38.8000 -77.0333 83° East 152 175 2,100  Level Potomac TRACON
10:40PM 38.7500 -77.0167 165° South 227 261 3,600 1,440 Climbing Potomac TRACON
10:41PM 38.9716 -76.6735 57° Northeast  Level FlightAware Approximate
10:41PM 38.7500 -76.9500 90° East 290 334 5,000  Level Potomac TRACON
10:42PM 39.0206 -76.5549 67° East  Level FlightAware Approximate
10:42PM 38.8167 -76.9000 30° Northeast 287 330 7,700  Level Potomac TRACON
10:43PM 39.0665 -76.4338 63° Northeast  Level FlightAware Approximate
10:43PM 38.8736 -76.8342 42° Northeast 295 339 10,600  Level Washington Center
10:44PM 39.1167 -76.3155 90° East  Level FlightAware Approximate
10:44PM 38.9183 -76.7361 60° Northeast 294 338 13,100  Level Washington Center
10:45PM 39.1519 -76.1975 83° East  Level FlightAware Approximate
10:45PM 38.9631 -76.6381 60° Northeast 304 350 15,900  Level Washington Center
10:46PM 39.0139 -76.5319 58° Northeast 323 372 17,700 1,320 Climbing Washington Center
10:47PM 39.0647 -76.4122 61° Northeast 350 403 18,700 1,320 Climbing Washington Center
10:48PM 39.1219 -76.2872 59° Northeast 382 440 20,400 1,500 Climbing Washington Center
10:49PM 39.1664 -76.1431 68° East 401 461 21,800 1,320 Climbing Washington Center
10:50PM 39.1836 -75.9825 82° East 427 491 23,100 1,320 Climbing Washington Center
10:51PM 39.2258 -75.8353 70° East 432 497 24,500 900 Climbing Washington Center
10:52PM 39.3175 -75.7203 44° Northeast 432 497 25,000 240 Climbing Washington Center
10:53PM 39.4053 -75.6022 46° Northeast 437 503 25,000 360 Level Washington Center
10:54PM 39.4969 -75.4894 43° Northeast 442 509 25,800 1,080 Climbing Washington Center
10:55PM 39.5864 -75.3708 46° Northeast 447 514 27,200 1,080 Climbing Washington Center
10:56PM 39.6778 -75.2492 46° Northeast 453 521 28,000 840 Climbing Washington Center
10:57PM 39.7667 -75.1192 48° Northeast 464 534 28,900 480 Climbing Washington Center
10:58PM 39.8497 -75.0050 47° Northeast 475 547 29,000  Climbing Washington Center
11:00PM 39.9922 -74.8106 46° Northeast 488 562 29,000  Level New York Center
11:01PM 40.0822 -74.6803 48° Northeast 481 554 29,000  Level New York Center
11:02PM 40.1719 -74.5494 48° Northeast 481 554 29,000  Level New York Center
11:03PM 40.2714 -74.4297 43° Northeast 481 554 29,000  Level New York Center
11:05PM 40.4608 -74.2211 40° Northeast 473 544 29,000 -120 Level Boston Center
11:06PM 40.5625 -74.1064 41° Northeast 468 539 28,700 -1,200 Descending Boston Center
11:07PM 40.6575 -74.0131 37° Northeast 468 539 26,600 -2,280 Descending Boston Center
11:08PM 40.7569 -73.9033 40° Northeast 468 539 24,200 -1,320 Descending Boston Center
11:09PM 40.8458 -73.7981 42° Northeast 448 516 24,000 -120 Descending Boston Center
11:10PM 40.9431 -73.6739 44° Northeast 434 499 24,000 -540 Level Boston Center
11:11PM 41.0256 -73.5792 41° Northeast 434 499 23,000 -540 Descending Boston Center
11:12PM 41.1344 -73.5067 27° Northeast 418 481 23,000 -420 Level Boston Center
11:13PM 41.2386 -73.5222 354° North 370 426 22,200 -1,200 Descending Boston Center
11:14PM 41.3425 -73.5433 351° North 365 420 20,700 -1,140 Descending Boston Center
11:15PM 41.4467 -73.5589 354° North 365 420 20,000 -480 Descending Boston Center
11:16PM 41.5444 -73.5828 350° North 365 420 19,800 -720 Descending Boston Center
11:17PM 41.6464 -73.5986 353° North 365 420 18,600 -1,080 Descending Boston Center
11:18PM 41.7358 -73.6169 351° North 365 420 17,700 -1,140 Descending Boston Center
11:19PM 41.8458 -73.6356 353° North 360 414 16,400 -1,200 Descending Boston Center
11:20PM 41.9333 -73.6511 352° North 354 407 15,300 -1,200 Descending Boston Center
11:20PM 42.0125 -73.6667 352° North 351 404 14,400 -1,200 Descending Boston Center
11:21PM 42.0372 -73.6700 354° North 349 402 14,100 -1,800 Descending Boston Center
11:21PM 42.1039 -73.6881 349° North 341 392 12,600 -1,920 Descending Boston Center
11:22PM 42.1331 -73.6914 355° North 349 402 12,200 -1,920 Descending Boston Center
11:22PM 42.2036 -73.7097 349° North 329 379 10,700 -1,140 Descending Boston Center
11:23PM 42.2161 -73.7128 350° North 349 402 11,100 -840 Climbing Boston Center
11:23PM 42.2806 -73.7225 354° North 275 316 9,900 -2,040 Descending Boston Center
11:24PM 42.3533 -73.7408 349° North 258 297 7,600 -2,040 Descending Boston Center
11:25PM 42.4283 -73.7536 353° North 273 314 5,900 -1,740 Descending Boston Center
11:26PM 42.5031 -73.7694 351° North 273 314 4,100 -1,620 Descending Boston Center
11:27PM 42.5717 -73.7850 351° North 247 284 2,700 -1,440 Descending Boston Center